createdAt,value
2023-03-26T00:00:04.797Z,21.9634
2023-03-26T00:01:06.431Z,21.9575
2023-03-26T00:02:08.255Z,21.9589
2023-03-26T00:03:09.703Z,21.9548
2023-03-26T00:04:11.468Z,21.9581
2023-03-26T00:05:13.102Z,21.9616
2023-03-26T00:06:14.664Z,21.9593
2023-03-26T00:07:16.403Z,21.9624
2023-03-26T00:08:18.068Z,21.9519
2023-03-26T00:09:19.578Z,21.9562
2023-03-26T00:10:21.365Z,21.9661
2023-03-26T00:11:22.937Z,21.9616
2023-03-26T00:12:24.584Z,21.9616
2023-03-26T00:13:26.231Z,21.9690
2023-03-26T00:14:27.862Z,21.9630
2023-03-26T00:15:29.484Z,21.9601
2023-03-26T00:16:31.197Z,21.9540
2023-03-26T00:17:32.830Z,21.9665
2023-03-26T00:18:34.504Z,21.9634
2023-03-26T00:19:36.090Z,21.9663
2023-03-26T00:20:37.740Z,21.9700
2023-03-26T00:21:39.394Z,21.9618
2023-03-26T00:22:41.109Z,21.9665
2023-03-26T00:23:42.671Z,21.9729
2023-03-26T00:24:44.339Z,21.9716
2023-03-26T00:25:46.771Z,21.9731
2023-03-26T00:26:47.648Z,21.9649
2023-03-26T00:27:49.294Z,21.9739
2023-03-26T00:28:50.953Z,21.9716
2023-03-26T00:29:52.563Z,21.9690
2023-03-26T00:30:54.279Z,21.9743
2023-03-26T00:31:55.871Z,21.9708
2023-03-26T00:32:57.570Z,21.9815
2023-03-26T00:33:59.161Z,21.9844
2023-03-26T00:35:00.845Z,21.9811
2023-03-26T00:36:04.397Z,21.9852
2023-03-26T00:37:04.125Z,21.9836
2023-03-26T00:38:05.776Z,21.9942
2023-03-26T00:39:07.417Z,21.9942
2023-03-26T00:40:09.040Z,22.0016
2023-03-26T00:41:10.712Z,21.9988
2023-03-26T00:42:12.342Z,21.9909
2023-03-26T00:43:14.019Z,21.9829
2023-03-26T00:44:15.643Z,21.9942
2023-03-26T00:45:17.304Z,22.0244
2023-03-26T00:46:18.998Z,22.0072
2023-03-26T00:47:20.761Z,22.0092
2023-03-26T00:48:28.846Z,22.0074
2023-03-26T00:49:23.890Z,22.0084
2023-03-26T00:50:25.529Z,22.0246
2023-03-26T00:51:27.218Z,22.0214
2023-03-26T00:52:28.833Z,22.0197
2023-03-26T00:53:30.667Z,22.0201
2023-03-26T00:54:32.142Z,22.0283
2023-03-26T00:55:33.805Z,22.0602
2023-03-26T00:56:35.476Z,22.0507
2023-03-26T00:57:37.185Z,22.0503
2023-03-26T00:58:38.751Z,22.0470
2023-03-26T00:59:40.403Z,22.0509
2023-03-26T01:00:42.034Z,22.0532
2023-03-26T01:01:43.726Z,22.0493
2023-03-26T01:02:45.435Z,22.0561
2023-03-26T01:04:04.830Z,22.0924
2023-03-26T01:04:48.759Z,22.1070
2023-03-26T01:05:50.303Z,22.1177
2023-03-26T01:06:51.916Z,22.1064
2023-03-26T01:07:53.590Z,22.1210
2023-03-26T01:08:55.251Z,22.1091
2023-03-26T01:09:56.871Z,22.1228
2023-03-26T01:10:58.514Z,22.1222
2023-03-26T01:12:00.181Z,22.1559
2023-03-26T01:13:01.812Z,22.1582
2023-03-26T01:14:03.502Z,22.1508
2023-03-26T01:15:05.124Z,22.1575
2023-03-26T01:16:06.822Z,22.1816
2023-03-26T01:17:08.405Z,22.1695
2023-03-26T01:18:10.092Z,22.1672
2023-03-26T01:19:11.721Z,22.1824
2023-03-26T01:20:13.376Z,22.2033
2023-03-26T01:21:15.000Z,22.2214
2023-03-26T01:22:16.687Z,22.2146
2023-03-26T01:23:18.326Z,22.2171
2023-03-26T01:24:20.001Z,22.2171
2023-03-26T01:25:21.604Z,22.2157
2023-03-26T01:26:23.261Z,22.2354
2023-03-26T01:27:24.902Z,22.2436
2023-03-26T01:28:26.573Z,22.2301
2023-03-26T01:29:28.242Z,22.2450
2023-03-26T01:30:29.869Z,22.2313
2023-03-26T01:31:31.483Z,22.2331
2023-03-26T01:32:33.321Z,22.2674
2023-03-26T01:33:34.855Z,22.2537
2023-03-26T01:34:36.502Z,22.2428
2023-03-26T01:35:38.118Z,22.2529
2023-03-26T01:36:39.765Z,22.2607
2023-03-26T01:37:41.381Z,22.2650
2023-03-26T01:38:43.060Z,22.2664
2023-03-26T01:39:44.713Z,22.2822
2023-03-26T01:40:46.351Z,22.2691
2023-03-26T01:41:47.986Z,22.2389
2023-03-26T01:42:49.661Z,22.2046
2023-03-26T01:43:51.289Z,22.2352
2023-03-26T01:44:52.978Z,22.2625
2023-03-26T01:45:54.738Z,22.2929
2023-03-26T01:46:56.339Z,22.3132
2023-03-26T01:47:57.905Z,22.3056
2023-03-26T01:48:59.532Z,22.2833
2023-03-26T01:50:01.207Z,22.2773
2023-03-26T01:51:02.838Z,22.2500
2023-03-26T01:52:04.470Z,22.2681
2023-03-26T01:53:06.143Z,22.2557
2023-03-26T01:54:07.840Z,22.2381
2023-03-26T01:55:09.533Z,22.2668
2023-03-26T01:56:11.172Z,22.2833
2023-03-26T01:57:12.822Z,22.3009
2023-03-26T01:58:14.439Z,22.2615
2023-03-26T01:59:16.117Z,22.2588
2023-03-26T02:00:17.777Z,22.2290
2023-03-26T02:01:19.481Z,22.2194
2023-03-26T02:02:21.173Z,22.2266
2023-03-26T02:03:22.854Z,22.2181
2023-03-26T02:04:24.362Z,22.2118
2023-03-26T02:05:26.063Z,22.2210
2023-03-26T02:06:27.652Z,22.2372
2023-03-26T02:07:29.328Z,22.2118
2023-03-26T02:08:30.963Z,22.2093
2023-03-26T02:09:32.614Z,22.2031
2023-03-26T02:10:34.270Z,22.2401
2023-03-26T02:11:36.224Z,22.2941
2023-03-26T02:12:37.544Z,22.2543
2023-03-26T02:13:39.217Z,22.2524
2023-03-26T02:14:40.862Z,22.2411
2023-03-26T02:15:42.541Z,22.2683
2023-03-26T02:16:44.166Z,22.2572
2023-03-26T02:17:45.827Z,22.2553
2023-03-26T02:18:47.498Z,22.2467
2023-03-26T02:19:49.125Z,22.3081
2023-03-26T02:20:50.773Z,22.3149
2023-03-26T02:21:52.408Z,22.2354
2023-03-26T02:22:54.043Z,22.2245
2023-03-26T02:23:55.715Z,22.1935
2023-03-26T02:24:57.349Z,22.2387
2023-03-26T02:25:59.043Z,22.2611
2023-03-26T02:27:00.642Z,22.2210
2023-03-26T02:28:02.304Z,22.2592
2023-03-26T02:29:03.941Z,22.2703
2023-03-26T02:30:05.606Z,22.2128
2023-03-26T02:31:07.274Z,22.2397
2023-03-26T02:32:08.909Z,22.2545
2023-03-26T02:33:10.591Z,22.2463
2023-03-26T02:34:12.220Z,22.2352
2023-03-26T02:35:13.894Z,22.2395
2023-03-26T02:36:15.601Z,22.2582
2023-03-26T02:37:17.145Z,22.2746
2023-03-26T02:38:18.775Z,22.2568
2023-03-26T02:39:20.445Z,22.2717
2023-03-26T02:40:22.096Z,22.2444
2023-03-26T02:41:23.749Z,22.2266
2023-03-26T02:42:25.385Z,22.2140
2023-03-26T02:43:27.019Z,22.2128
2023-03-26T02:44:28.680Z,22.1976
2023-03-26T02:45:30.315Z,22.1701
2023-03-26T02:46:32.054Z,22.1662
2023-03-26T02:47:33.692Z,22.1366
2023-03-26T02:48:35.271Z,22.1162
2023-03-26T02:49:36.899Z,22.1021
2023-03-26T02:50:38.578Z,22.1245
2023-03-26T02:51:40.210Z,22.1310
2023-03-26T02:52:41.871Z,22.1054
2023-03-26T02:53:43.496Z,22.1086
2023-03-26T02:54:45.154Z,22.0830
2023-03-26T02:55:46.792Z,22.1064
2023-03-26T02:56:48.505Z,22.1220
2023-03-26T02:57:50.096Z,22.1629
2023-03-26T02:58:51.757Z,22.1791
2023-03-26T02:59:53.391Z,22.1867
2023-03-26T03:00:55.143Z,22.1933
2023-03-26T03:01:56.759Z,22.2296
2023-03-26T03:02:58.443Z,22.3176
2023-03-26T03:03:59.984Z,22.3128
2023-03-26T03:05:01.765Z,22.2512
2023-03-26T03:06:03.269Z,22.2161
2023-03-26T03:07:05.069Z,22.2042
2023-03-26T03:08:06.643Z,22.2093
2023-03-26T03:09:08.284Z,22.2149
2023-03-26T03:10:09.973Z,22.2093
2023-03-26T03:11:11.592Z,22.1982
2023-03-26T03:12:13.299Z,22.1990
2023-03-26T03:13:14.941Z,22.2099
2023-03-26T03:14:16.511Z,22.1886
2023-03-26T03:15:18.247Z,22.1941
2023-03-26T03:16:19.921Z,22.1707
2023-03-26T03:17:21.559Z,22.2066
2023-03-26T03:18:23.194Z,22.2165
2023-03-26T03:19:24.745Z,22.2288
2023-03-26T03:20:26.363Z,22.2346
2023-03-26T03:21:28.037Z,22.2268
2023-03-26T03:22:29.689Z,22.2600
2023-03-26T03:23:31.319Z,22.2446
2023-03-26T03:24:32.961Z,22.2689
2023-03-26T03:25:34.636Z,22.2498
2023-03-26T03:26:36.253Z,22.2619
2023-03-26T03:27:37.949Z,22.3075
2023-03-26T03:28:39.566Z,22.3071
2023-03-26T03:29:41.212Z,22.2783
2023-03-26T03:30:42.897Z,22.2580
2023-03-26T03:31:44.520Z,22.2563
2023-03-26T03:32:46.238Z,22.2395
2023-03-26T03:33:47.819Z,22.2578
2023-03-26T03:34:49.438Z,22.2545
2023-03-26T03:35:51.113Z,22.2549
2023-03-26T03:36:52.726Z,22.2736
2023-03-26T03:37:54.415Z,22.2471
2023-03-26T03:38:56.041Z,22.2307
2023-03-26T03:39:57.694Z,22.2506
2023-03-26T03:40:59.324Z,22.2434
2023-03-26T03:42:00.998Z,22.2405
2023-03-26T03:43:02.665Z,22.2450
2023-03-26T03:44:04.300Z,22.2401
2023-03-26T03:45:05.928Z,22.2231
2023-03-26T03:46:07.639Z,22.2247
2023-03-26T03:47:09.211Z,22.2261
2023-03-26T03:48:10.942Z,22.2436
2023-03-26T03:49:12.526Z,22.2424
2023-03-26T03:50:14.200Z,22.2654
2023-03-26T03:51:15.841Z,22.2835
2023-03-26T03:52:17.487Z,22.2529
2023-03-26T03:53:19.144Z,22.2492
2023-03-26T03:54:20.786Z,22.2222
2023-03-26T03:55:22.409Z,22.2337
2023-03-26T03:56:24.101Z,22.2812
2023-03-26T03:57:25.728Z,22.2748
2023-03-26T03:58:27.424Z,22.2465
2023-03-26T03:59:29.004Z,22.2549
2023-03-26T04:00:30.696Z,22.2399
2023-03-26T04:01:32.304Z,22.2446
2023-03-26T04:02:34.076Z,22.2498
2023-03-26T04:03:35.778Z,22.2648
2023-03-26T04:04:37.331Z,22.2393
2023-03-26T04:05:38.920Z,22.2266
2023-03-26T04:06:40.579Z,22.2455
2023-03-26T04:07:42.206Z,22.2251
2023-03-26T04:08:43.995Z,22.2315
2023-03-26T04:09:45.504Z,22.2101
2023-03-26T04:10:47.163Z,22.2116
2023-03-26T04:11:48.802Z,22.1972
2023-03-26T04:12:50.461Z,22.2165
2023-03-26T04:13:52.113Z,22.2225
2023-03-26T04:14:53.756Z,22.2305
2023-03-26T04:15:55.656Z,22.2374
2023-03-26T04:16:57.061Z,22.2274
2023-03-26T04:17:58.760Z,22.2416
2023-03-26T04:19:00.371Z,22.2374
2023-03-26T04:20:01.983Z,22.2446
2023-03-26T04:21:03.638Z,22.2422
2023-03-26T04:22:05.288Z,22.2046
2023-03-26T04:23:06.948Z,22.2181
2023-03-26T04:24:08.597Z,22.2089
2023-03-26T04:25:10.259Z,22.2052
2023-03-26T04:26:11.867Z,22.2247
2023-03-26T04:27:13.527Z,22.2233
2023-03-26T04:28:15.162Z,22.2405
2023-03-26T04:29:16.844Z,22.2518
2023-03-26T04:30:18.456Z,22.2185
2023-03-26T04:31:20.163Z,22.2446
2023-03-26T04:32:21.773Z,22.2508
2023-03-26T04:33:23.438Z,22.2572
2023-03-26T04:34:25.127Z,22.2323
2023-03-26T04:35:26.763Z,22.2315
2023-03-26T04:36:28.390Z,22.2192
2023-03-26T04:37:30.020Z,22.2327
2023-03-26T04:38:31.645Z,22.2284
2023-03-26T04:39:33.352Z,22.2103
2023-03-26T04:40:34.969Z,22.2058
2023-03-26T04:41:36.630Z,22.2007
2023-03-26T04:42:38.253Z,22.2190
2023-03-26T04:43:39.929Z,22.2510
2023-03-26T04:44:41.638Z,22.2261
2023-03-26T04:45:43.209Z,22.2003
2023-03-26T04:46:44.853Z,22.2167
2023-03-26T04:47:46.802Z,22.2255
2023-03-26T04:48:48.141Z,22.2089
2023-03-26T04:49:49.839Z,22.2198
2023-03-26T04:50:51.448Z,22.2590
2023-03-26T04:51:53.095Z,22.2689
2023-03-26T04:52:54.750Z,22.2298
2023-03-26T04:53:56.418Z,22.2243
2023-03-26T04:54:58.060Z,22.2040
2023-03-26T04:55:59.699Z,22.1668
2023-03-26T04:57:01.343Z,22.1847
2023-03-26T04:58:02.986Z,22.2066
2023-03-26T04:59:04.628Z,22.2257
2023-03-26T05:00:06.317Z,22.2411
2023-03-26T05:01:10.318Z,22.2430
2023-03-26T05:02:09.620Z,22.2124
2023-03-26T05:03:11.218Z,22.2179
2023-03-26T05:04:12.893Z,22.2085
2023-03-26T05:05:14.543Z,22.1861
2023-03-26T05:06:16.195Z,22.1943
2023-03-26T05:07:17.819Z,22.1873
2023-03-26T05:08:19.492Z,22.1879
2023-03-26T05:09:21.126Z,22.1881
2023-03-26T05:10:22.869Z,22.1871
2023-03-26T05:11:24.430Z,22.2132
2023-03-26T05:12:26.100Z,22.2042
2023-03-26T05:13:27.713Z,22.1982
2023-03-26T05:14:29.390Z,22.1921
2023-03-26T05:15:31.053Z,22.2079
2023-03-26T05:16:32.706Z,22.2077
2023-03-26T05:17:34.382Z,22.2128
2023-03-26T05:18:36.015Z,22.2340
2023-03-26T05:19:37.624Z,22.2276
2023-03-26T05:20:39.328Z,22.1896
2023-03-26T05:21:40.933Z,22.2270
2023-03-26T05:22:42.592Z,22.2183
2023-03-26T05:23:44.233Z,22.1945
2023-03-26T05:24:45.911Z,22.2089
2023-03-26T05:25:47.567Z,22.2073
2023-03-26T05:26:49.205Z,22.2243
2023-03-26T05:27:50.820Z,22.2212
2023-03-26T05:28:52.733Z,22.2340
2023-03-26T05:29:54.109Z,22.2399
2023-03-26T05:30:55.984Z,22.2179
2023-03-26T05:31:57.432Z,22.2181
2023-03-26T05:32:59.125Z,22.2179
2023-03-26T05:34:00.861Z,22.2085
2023-03-26T05:35:02.352Z,22.2079
2023-03-26T05:36:04.081Z,22.2151
2023-03-26T05:37:05.667Z,22.1651
2023-03-26T05:38:07.317Z,22.1863
2023-03-26T05:39:08.947Z,22.1727
2023-03-26T05:40:10.640Z,22.1567
2023-03-26T05:41:12.285Z,22.1931
2023-03-26T05:42:13.922Z,22.1744
2023-03-26T05:43:15.549Z,22.1586
2023-03-26T05:44:17.234Z,22.1660
2023-03-26T05:45:18.853Z,22.1966
2023-03-26T05:46:20.653Z,22.2309
2023-03-26T05:47:22.143Z,22.2333
2023-03-26T05:48:23.828Z,22.1933
2023-03-26T05:49:25.460Z,22.1510
2023-03-26T05:50:27.129Z,22.1849
2023-03-26T05:51:28.775Z,22.1742
2023-03-26T05:52:30.430Z,22.1902
2023-03-26T05:53:32.066Z,22.1748
2023-03-26T05:54:33.740Z,22.1569
2023-03-26T05:55:35.365Z,22.1522
2023-03-26T05:56:37.175Z,22.1736
2023-03-26T05:57:38.734Z,22.1886
2023-03-26T05:58:40.413Z,22.1561
2023-03-26T05:59:42.029Z,22.1395
2023-03-26T06:00:43.705Z,22.1312
2023-03-26T06:01:45.362Z,22.1000
2023-03-26T06:02:47.091Z,22.1378
2023-03-26T06:03:48.707Z,22.1454
2023-03-26T06:04:50.349Z,22.1450
2023-03-26T06:05:51.933Z,22.1181
2023-03-26T06:06:53.634Z,22.0898
2023-03-26T06:07:55.224Z,22.0733
2023-03-26T06:09:01.910Z,22.1086
2023-03-26T06:09:58.533Z,22.1082
2023-03-26T06:11:00.221Z,22.1222
2023-03-26T06:12:01.874Z,22.0826
2023-03-26T06:13:03.513Z,22.0826
2023-03-26T06:14:05.126Z,22.0797
2023-03-26T06:15:06.807Z,22.0900
2023-03-26T06:16:08.459Z,22.1148
2023-03-26T06:17:10.180Z,22.1304
2023-03-26T06:18:11.791Z,22.1298
2023-03-26T06:19:13.519Z,21.9207
2023-03-26T06:20:15.037Z,21.2168
2023-03-26T06:21:16.704Z,20.7573
2023-03-26T06:22:18.358Z,20.7455
2023-03-26T06:23:19.996Z,20.7817
2023-03-26T06:24:21.630Z,20.8435
2023-03-26T06:25:23.295Z,20.5256
2023-03-26T06:26:24.936Z,20.4391
2023-03-26T06:27:26.625Z,20.3857
2023-03-26T06:28:28.244Z,20.0691
2023-03-26T06:29:29.918Z,19.8528
2023-03-26T06:30:31.551Z,19.5866
2023-03-26T06:31:33.257Z,19.4469
2023-03-26T06:32:34.913Z,19.6419
2023-03-26T06:33:36.517Z,20.1501
2023-03-26T06:34:38.146Z,20.5071
2023-03-26T06:35:39.855Z,20.7334
2023-03-26T06:36:41.465Z,20.9066
2023-03-26T06:37:43.146Z,20.9224
2023-03-26T06:38:44.770Z,20.9540
2023-03-26T06:39:46.429Z,21.0459
2023-03-26T06:40:48.069Z,21.1687
2023-03-26T06:41:49.730Z,21.2192
2023-03-26T06:43:08.643Z,21.2281
2023-03-26T06:43:53.048Z,21.2926
2023-03-26T06:44:54.669Z,21.4158
2023-03-26T06:45:56.357Z,21.4306
2023-03-26T06:46:58.046Z,21.4425
2023-03-26T06:47:59.734Z,21.4413
2023-03-26T06:49:01.283Z,21.4795
2023-03-26T06:50:02.977Z,21.4914
2023-03-26T06:51:04.608Z,21.5031
2023-03-26T06:52:06.274Z,21.5584
2023-03-26T06:53:07.913Z,21.5902
2023-03-26T06:54:09.563Z,21.6424
2023-03-26T06:55:11.220Z,21.6050
2023-03-26T06:56:12.873Z,21.5680
2023-03-26T06:57:14.527Z,21.6479
2023-03-26T06:58:16.210Z,21.6921
2023-03-26T06:59:17.846Z,21.6660
2023-03-26T07:00:19.485Z,21.6508
2023-03-26T07:01:21.165Z,21.6777
2023-03-26T07:02:22.819Z,21.7003
2023-03-26T07:03:24.433Z,21.7194
2023-03-26T07:04:26.110Z,21.7381
2023-03-26T07:05:27.781Z,21.7613
2023-03-26T07:06:29.391Z,21.7917
2023-03-26T07:07:31.047Z,21.8073
2023-03-26T07:08:32.720Z,21.8205
2023-03-26T07:09:34.360Z,21.8523
2023-03-26T07:10:35.987Z,21.8683
2023-03-26T07:11:37.656Z,21.8899
2023-03-26T07:12:39.292Z,21.8930
2023-03-26T07:13:40.978Z,21.9020
2023-03-26T07:14:42.601Z,21.9139
2023-03-26T07:15:44.282Z,21.9115
2023-03-26T07:16:45.903Z,21.9449
2023-03-26T07:17:47.577Z,21.9630
2023-03-26T07:18:49.452Z,21.9727
2023-03-26T07:19:50.874Z,22.0109
2023-03-26T07:20:52.605Z,21.9909
2023-03-26T07:21:54.177Z,21.9842
2023-03-26T07:22:55.801Z,21.9924
2023-03-26T07:23:57.493Z,21.9848
2023-03-26T07:24:59.111Z,22.0271
2023-03-26T07:26:00.786Z,22.0448
2023-03-26T07:27:02.429Z,22.0318
2023-03-26T07:28:04.088Z,22.0255
2023-03-26T07:29:05.728Z,22.0004
2023-03-26T07:30:07.396Z,22.0746
2023-03-26T07:31:09.015Z,22.1146
2023-03-26T07:32:10.680Z,22.1592
2023-03-26T07:33:12.314Z,22.1744
2023-03-26T07:34:14.011Z,22.1970
2023-03-26T07:35:15.629Z,22.2001
2023-03-26T07:36:17.304Z,22.1740
2023-03-26T07:37:18.925Z,22.1705
2023-03-26T07:38:20.592Z,22.1941
2023-03-26T07:39:22.250Z,22.2103
2023-03-26T07:40:23.900Z,22.2163
2023-03-26T07:41:25.537Z,22.2311
2023-03-26T07:42:27.223Z,22.2196
2023-03-26T07:43:28.852Z,22.2276
2023-03-26T07:44:30.525Z,22.2243
2023-03-26T07:45:32.165Z,22.2348
2023-03-26T07:46:33.800Z,22.2442
2023-03-26T07:47:35.478Z,22.2181
2023-03-26T07:48:37.104Z,22.2434
2023-03-26T07:49:38.758Z,22.2097
2023-03-26T07:50:40.410Z,22.1612
2023-03-26T07:51:42.048Z,22.1999
2023-03-26T07:52:43.708Z,22.2126
2023-03-26T07:53:45.341Z,22.1972
2023-03-26T07:54:47.048Z,22.1908
2023-03-26T07:55:48.663Z,22.2112
2023-03-26T07:56:50.386Z,22.2042
2023-03-26T07:57:51.936Z,22.1978
2023-03-26T07:58:53.615Z,22.2134
2023-03-26T07:59:55.266Z,22.2171
2023-03-26T08:00:57.125Z,22.2321
2023-03-26T08:01:58.543Z,22.2438
2023-03-26T08:03:00.286Z,22.2220
2023-03-26T08:04:23.424Z,22.1699
2023-03-26T08:05:03.597Z,22.1462
2023-03-26T08:06:05.134Z,22.2151
2023-03-26T08:07:06.803Z,22.2438
2023-03-26T08:08:08.443Z,22.2395
2023-03-26T08:09:10.109Z,22.2296
2023-03-26T08:10:12.016Z,22.2274
2023-03-26T08:11:13.422Z,22.2303
2023-03-26T08:12:15.039Z,22.2144
2023-03-26T08:13:16.732Z,22.2077
2023-03-26T08:14:18.336Z,22.2161
2023-03-26T08:15:20.037Z,22.1750
2023-03-26T08:16:21.666Z,22.1559
2023-03-26T08:17:23.346Z,22.1684
2023-03-26T08:18:24.942Z,22.1347
2023-03-26T08:19:26.612Z,22.1577
2023-03-26T08:20:28.339Z,22.1271
2023-03-26T08:21:29.918Z,22.0417
2023-03-26T08:22:31.591Z,22.1109
2023-03-26T08:23:33.220Z,22.1405
2023-03-26T08:24:34.893Z,22.1393
2023-03-26T08:25:38.001Z,22.1214
2023-03-26T08:26:38.146Z,22.0308
2023-03-26T08:27:39.809Z,22.0064
2023-03-26T08:28:41.471Z,22.0600
2023-03-26T08:29:43.133Z,22.1210
2023-03-26T08:30:44.812Z,22.1089
2023-03-26T08:31:46.411Z,22.1126
2023-03-26T08:32:48.132Z,22.0976
2023-03-26T08:33:49.731Z,22.0797
2023-03-26T08:34:51.402Z,22.0610
2023-03-26T08:35:53.132Z,22.0591
2023-03-26T08:36:54.721Z,22.0548
2023-03-26T08:37:56.332Z,22.0515
2023-03-26T08:38:58.001Z,22.0402
2023-03-26T08:39:59.643Z,22.0310
2023-03-26T08:41:01.332Z,22.0427
2023-03-26T08:42:02.931Z,22.0382
2023-03-26T08:43:04.602Z,22.0394
2023-03-26T08:44:06.260Z,22.0333
2023-03-26T08:45:07.927Z,22.0205
2023-03-26T08:46:09.597Z,22.0228
2023-03-26T08:47:11.204Z,22.0138
2023-03-26T08:48:12.844Z,22.0158
2023-03-26T08:49:14.501Z,22.0156
2023-03-26T08:50:16.238Z,22.0115
2023-03-26T08:51:17.836Z,22.0135
2023-03-26T08:52:19.446Z,22.0088
2023-03-26T08:53:21.116Z,22.0113
2023-03-26T08:54:22.750Z,22.0002
2023-03-26T08:55:24.423Z,21.9879
2023-03-26T08:56:26.098Z,21.9881
2023-03-26T08:57:27.716Z,21.9967
2023-03-26T08:58:29.352Z,21.9868
2023-03-26T08:59:31.029Z,21.9932
2023-03-26T09:00:32.663Z,21.9825
2023-03-26T09:01:34.393Z,21.9780
2023-03-26T09:02:36.030Z,21.9784
2023-03-26T09:03:37.625Z,21.9813
2023-03-26T09:04:39.272Z,21.9815
2023-03-26T09:05:40.958Z,21.9811
2023-03-26T09:06:42.646Z,21.9792
2023-03-26T09:07:44.293Z,21.9762
2023-03-26T09:08:54.212Z,21.9729
2023-03-26T09:09:47.505Z,21.9735
2023-03-26T09:10:49.154Z,21.9764
2023-03-26T09:11:50.823Z,21.9714
2023-03-26T09:12:52.440Z,21.9667
2023-03-26T09:13:54.132Z,21.9673
2023-03-26T09:14:55.757Z,21.9692
2023-03-26T09:15:57.511Z,21.9661
2023-03-26T09:16:59.080Z,21.9649
2023-03-26T09:18:00.762Z,21.9667
2023-03-26T09:19:02.345Z,21.9638
2023-03-26T09:20:04.026Z,21.9638
2023-03-26T09:21:05.673Z,21.9663
2023-03-26T09:22:07.380Z,21.9575
2023-03-26T09:23:08.960Z,21.9640
2023-03-26T09:24:10.624Z,21.9564
2023-03-26T09:25:12.276Z,21.9573
2023-03-26T09:26:13.929Z,21.9548
2023-03-26T09:27:15.589Z,21.9478
2023-03-26T09:28:17.225Z,21.9527
2023-03-26T09:29:18.855Z,21.9488
2023-03-26T09:30:20.505Z,21.9517
2023-03-26T09:31:22.202Z,21.9525
2023-03-26T09:32:23.942Z,21.9443
2023-03-26T09:33:25.477Z,21.9474
2023-03-26T09:34:27.144Z,21.9482
2023-03-26T09:35:28.764Z,21.9493
2023-03-26T09:36:30.472Z,21.9472
2023-03-26T09:37:32.083Z,21.9468
2023-03-26T09:38:33.741Z,21.9495
2023-03-26T09:39:35.363Z,21.9431
2023-03-26T09:40:37.035Z,21.9427
2023-03-26T09:41:38.658Z,21.9464
2023-03-26T09:42:40.359Z,22.2409
2023-03-26T09:43:41.996Z,22.3712
2023-03-26T09:44:43.628Z,21.7588
2023-03-26T09:45:45.275Z,21.8396
2023-03-26T09:46:46.936Z,21.8895
2023-03-26T09:47:48.648Z,21.8981
2023-03-26T09:48:50.237Z,21.8893
2023-03-26T09:49:51.865Z,21.8630
2023-03-26T09:50:53.719Z,21.8494
2023-03-26T09:51:55.146Z,21.8330
2023-03-26T09:52:56.845Z,21.8118
2023-03-26T09:53:58.447Z,21.7948
2023-03-26T09:55:00.162Z,21.7845
2023-03-26T09:56:01.772Z,21.7765
2023-03-26T09:57:03.465Z,21.7621
2023-03-26T09:58:05.134Z,21.7687
2023-03-26T09:59:06.854Z,21.7539
2023-03-26T10:00:08.423Z,21.7623
2023-03-26T10:01:10.144Z,21.7523
2023-03-26T10:02:11.717Z,21.7594
2023-03-26T10:03:13.465Z,21.2509
2023-03-26T10:04:15.024Z,20.5151
2023-03-26T10:05:16.690Z,20.3148
2023-03-26T10:06:18.313Z,20.3807
2023-03-26T10:07:19.984Z,20.5553
2023-03-26T10:08:21.641Z,20.7078
2023-03-26T10:09:23.290Z,20.8614
2023-03-26T10:10:24.906Z,20.9390
2023-03-26T10:11:26.588Z,21.0448
2023-03-26T10:12:28.222Z,21.1835
2023-03-26T10:13:29.928Z,21.2539
2023-03-26T10:14:31.532Z,21.3145
2023-03-26T10:15:33.198Z,21.3316
2023-03-26T10:16:34.880Z,21.3870
2023-03-26T10:17:37.179Z,21.4137
2023-03-26T10:18:38.166Z,21.4306
2023-03-26T10:19:39.808Z,21.4437
2023-03-26T10:20:41.434Z,21.4526
2023-03-26T10:21:43.096Z,21.4657
2023-03-26T10:22:44.742Z,21.4680
2023-03-26T10:23:46.425Z,21.4778
2023-03-26T10:24:48.044Z,21.4795
2023-03-26T10:25:49.745Z,21.4978
2023-03-26T10:27:08.589Z,21.5119
2023-03-26T10:27:53.014Z,21.5054
2023-03-26T10:28:54.677Z,21.5023
2023-03-26T10:29:56.325Z,21.5154
2023-03-26T10:30:58.118Z,21.5162
2023-03-26T10:31:59.616Z,21.5169
2023-03-26T10:33:01.324Z,21.5202
2023-03-26T10:34:02.959Z,21.5317
2023-03-26T10:35:04.555Z,21.5434
2023-03-26T10:36:06.251Z,21.5569
2023-03-26T10:37:07.851Z,21.5577
2023-03-26T10:38:09.527Z,21.5448
2023-03-26T10:39:11.183Z,21.5623
2023-03-26T10:40:12.830Z,21.5569
2023-03-26T10:41:14.491Z,21.5797
2023-03-26T10:42:16.123Z,21.5927
2023-03-26T10:43:17.763Z,21.5877
2023-03-26T10:44:19.508Z,21.5812
2023-03-26T10:45:21.096Z,21.6013
2023-03-26T10:46:22.772Z,21.5920
2023-03-26T10:47:24.432Z,21.6062
2023-03-26T10:48:26.054Z,21.6268
2023-03-26T10:49:27.750Z,21.6383
2023-03-26T10:50:29.362Z,21.6370
2023-03-26T10:51:30.972Z,21.6506
2023-03-26T10:52:32.670Z,21.6362
2023-03-26T10:53:34.295Z,21.6489
2023-03-26T10:54:35.999Z,21.6454
2023-03-26T10:55:37.596Z,21.6615
2023-03-26T10:56:39.290Z,21.6459
2023-03-26T10:57:40.896Z,21.6381
2023-03-26T10:58:48.590Z,21.6580
2023-03-26T10:59:44.247Z,21.6500
2023-03-26T11:00:45.892Z,21.6641
2023-03-26T11:01:47.524Z,21.6654
2023-03-26T11:02:49.225Z,21.6623
2023-03-26T11:03:50.827Z,21.6633
2023-03-26T11:04:52.517Z,21.6670
2023-03-26T11:05:54.191Z,21.6643
2023-03-26T11:06:55.800Z,21.6553
2023-03-26T11:07:57.430Z,21.6617
2023-03-26T11:08:59.136Z,21.7060
2023-03-26T11:10:00.746Z,21.7385
2023-03-26T11:11:02.395Z,21.7282
2023-03-26T11:12:26.223Z,21.7315
2023-03-26T11:13:05.691Z,21.7383
2023-03-26T11:14:07.339Z,21.7202
2023-03-26T11:15:09.106Z,21.7369
2023-03-26T11:16:10.642Z,21.7492
2023-03-26T11:17:14.915Z,21.7788
2023-03-26T11:18:13.963Z,21.7888
2023-03-26T11:19:15.591Z,21.7697
2023-03-26T11:20:17.292Z,21.7588
2023-03-26T11:21:20.635Z,21.7736
2023-03-26T11:22:20.527Z,21.7510
2023-03-26T11:23:22.211Z,21.7568
2023-03-26T11:24:23.812Z,21.7510
2023-03-26T11:25:25.532Z,21.7313
2023-03-26T11:26:27.137Z,21.7395
2023-03-26T11:27:28.792Z,21.7502
2023-03-26T11:28:30.446Z,21.7710
2023-03-26T11:29:33.494Z,21.7903
2023-03-26T11:30:33.767Z,21.7907
2023-03-26T11:31:35.433Z,21.7773
2023-03-26T11:32:37.070Z,21.7648
2023-03-26T11:33:38.689Z,21.7779
2023-03-26T11:34:40.347Z,21.7886
2023-03-26T11:35:42.013Z,21.8081
2023-03-26T11:36:43.630Z,21.7845
2023-03-26T11:37:45.308Z,21.7822
2023-03-26T11:38:46.965Z,21.7892
2023-03-26T11:39:48.584Z,21.7835
2023-03-26T11:40:50.249Z,21.8420
2023-03-26T11:41:51.901Z,21.8774
2023-03-26T11:42:53.540Z,21.8153
2023-03-26T11:43:55.217Z,21.7911
2023-03-26T11:44:56.861Z,21.7800
2023-03-26T11:45:58.550Z,21.7683
2023-03-26T11:47:00.126Z,21.7629
2023-03-26T11:48:01.854Z,21.7477
2023-03-26T11:49:03.407Z,21.7794
2023-03-26T11:50:05.143Z,21.8011
2023-03-26T11:51:06.783Z,21.8059
2023-03-26T11:52:08.393Z,21.8063
2023-03-26T11:53:10.039Z,21.7892
2023-03-26T11:54:11.714Z,21.7829
2023-03-26T11:55:13.343Z,21.7814
2023-03-26T11:56:15.174Z,21.7693
2023-03-26T11:57:16.694Z,21.7687
2023-03-26T11:58:18.307Z,21.7599
2023-03-26T11:59:21.650Z,21.7675
2023-03-26T12:00:21.607Z,21.7724
2023-03-26T12:01:23.250Z,21.7582
2023-03-26T12:02:25.076Z,21.7664
2023-03-26T12:03:26.551Z,21.7547
2023-03-26T12:04:30.604Z,21.7590
2023-03-26T12:05:29.840Z,21.7486
2023-03-26T12:06:31.536Z,21.7449
2023-03-26T12:07:33.146Z,21.7432
2023-03-26T12:08:34.814Z,21.7387
2023-03-26T12:09:36.444Z,21.7500
2023-03-26T12:10:38.543Z,21.7492
2023-03-26T12:11:39.771Z,21.7426
2023-03-26T12:12:41.424Z,21.7430
2023-03-26T12:13:43.052Z,21.7519
2023-03-26T12:14:44.703Z,21.7555
2023-03-26T12:15:46.350Z,21.7479
2023-03-26T12:16:48.060Z,21.7436
2023-03-26T12:17:49.651Z,21.7395
2023-03-26T12:18:51.307Z,21.7422
2023-03-26T12:19:52.947Z,21.7319
2023-03-26T12:20:54.734Z,21.7194
2023-03-26T12:21:56.265Z,21.7231
2023-03-26T12:22:57.913Z,21.7171
2023-03-26T12:23:59.548Z,21.7231
2023-03-26T12:25:01.200Z,21.7161